createdAt,value
2023-04-11T00:00:00.000Z,9.59
2023-04-11T00:15:00.000Z,9.71
2023-04-11T00:30:00.000Z,9.82
2023-04-11T00:45:00.000Z,9.86
2023-04-11T01:00:00.000Z,9.88
2023-04-11T01:15:00.000Z,9.77
2023-04-11T01:30:00.000Z,9.68
2023-04-11T01:45:00.000Z,9.89
2023-04-11T02:00:00.000Z,9.9
2023-04-11T02:15:00.000Z,9.81
2023-04-11T02:30:00.000Z,9.67
2023-04-11T02:45:00.000Z,9.47
2023-04-11T03:00:00.000Z,9.59
2023-04-11T03:15:00.000Z,9.62
2023-04-11T03:30:00.000Z,9.72
2023-04-11T03:45:00.000Z,9.75
2023-04-11T04:00:00.000Z,9.54
2023-04-11T04:15:00.000Z,9.14
2023-04-11T04:30:00.000Z,8.91
2023-04-11T04:45:00.000Z,8.93
2023-04-11T05:00:00.000Z,9.21
2023-04-11T05:15:00.000Z,9.4
2023-04-11T05:30:00.000Z,9.38
2023-04-11T05:45:00.000Z,9.39
2023-04-11T06:00:00.000Z,9.57
2023-04-11T06:15:00.000Z,9.96
2023-04-11T06:30:00.000Z,9.97
2023-04-11T06:45:00.000Z,10.15
2023-04-11T07:00:00.000Z,10.29
2023-04-11T07:15:00.000Z,10.18
2023-04-11T07:30:00.000Z,10.18
2023-04-11T07:45:00.000Z,10.54
2023-04-11T08:00:00.000Z,11.34
2023-04-11T08:15:00.000Z,11.61
2023-04-11T08:30:00.000Z,11.74
2023-04-11T08:45:00.000Z,11.62
2023-04-11T09:00:00.000Z,11.47
2023-04-11T09:15:00.000Z,11.74
2023-04-11T09:30:00.000Z,12.17
2023-04-11T09:45:00.000Z,12.02
2023-04-11T10:00:00.000Z,11.84
2023-04-11T10:15:00.000Z,11.81
2023-04-11T10:30:00.000Z,11.64
2023-04-11T10:45:00.000Z,11.34
2023-04-11T11:00:00.000Z,11
2023-04-11T11:15:00.000Z,10.86
2023-04-11T11:30:00.000Z,10.88
2023-04-11T11:45:00.000Z,11.16
2023-04-11T12:00:00.000Z,10.8
2023-04-11T12:15:00.000Z,10.76
2023-04-11T12:30:00.000Z,10.74
2023-04-11T12:45:00.000Z,11.01
2023-04-11T13:00:00.000Z,11.4
2023-04-11T13:15:00.000Z,11.57
2023-04-11T13:30:00.000Z,12.08
2023-04-11T13:45:00.000Z,12.5
2023-04-11T14:00:00.000Z,12.24
2023-04-11T14:15:00.000Z,12.04
2023-04-11T14:30:00.000Z,12.02
2023-04-11T14:45:00.000Z,12.14
2023-04-11T15:00:00.000Z,12.12
2023-04-11T15:15:00.000Z,11.94
2023-04-11T15:30:00.000Z,12.09
2023-04-11T15:45:00.000Z,12.27
2023-04-11T16:00:00.000Z,11.94
2023-04-11T16:15:00.000Z,11.68
2023-04-11T16:30:00.000Z,11.64
2023-04-11T16:45:00.000Z,11.99
2023-04-11T17:00:00.000Z,12.02
2023-04-11T17:15:00.000Z,11.3
2023-04-11T17:30:00.000Z,10.78
2023-04-11T17:45:00.000Z,10.44
2023-04-11T18:00:00.000Z,10.44
2023-04-11T18:15:00.000Z,10.42
2023-04-11T18:30:00.000Z,10.05
2023-04-11T18:45:00.000Z,9.7
2023-04-11T19:00:00.000Z,9.38
2023-04-11T19:15:00.000Z,9.21
2023-04-11T19:30:00.000Z,8.89
2023-04-11T19:45:00.000Z,9.05
2023-04-11T20:00:00.000Z,8.86
2023-04-11T20:15:00.000Z,8.51
2023-04-11T20:30:00.000Z,7.96
2023-04-11T20:45:00.000Z,7.64
2023-04-11T21:00:00.000Z,7.92
2023-04-11T21:15:00.000Z,8.14
2023-04-11T21:30:00.000Z,7.89
2023-04-11T21:45:00.000Z,7.78
2023-04-11T22:00:00.000Z,7.39
2023-04-11T22:15:00.000Z,7.07
2023-04-11T22:30:00.000Z,6.91
2023-04-11T22:45:00.000Z,6.75
2023-04-11T23:00:00.000Z,6.62
2023-04-11T23:15:00.000Z,6.49
2023-04-11T23:30:00.000Z,6.44
2023-04-11T23:45:00.000Z,6.29
